createdAt,value
2022-11-12T16:31:05.631Z,5.00
2022-11-12T16:32:06.560Z,5.20
2022-11-12T16:33:06.537Z,5.10
2022-11-12T16:36:17.469Z,8.00
2022-11-12T16:39:37.485Z,8.90
2022-11-12T16:49:48.788Z,4.80
2022-11-12T16:50:49.415Z,4.90
2022-11-12T16:51:49.474Z,4.80
2022-11-12T16:52:49.444Z,4.90
2022-11-12T16:53:49.366Z,4.90
2022-11-12T16:54:49.383Z,5.20
2022-11-12T16:55:49.338Z,5.10
2022-11-12T16:56:49.401Z,5.20
2022-11-12T16:57:49.336Z,7.40
2022-11-12T16:58:49.723Z,11.90
2022-11-12T16:59:49.412Z,5.70
2022-11-12T17:00:49.332Z,5.90
2022-11-12T17:01:49.280Z,10.70
2022-11-12T17:02:53.287Z,8.50
2022-11-12T17:03:49.268Z,5.10
2022-11-12T17:04:49.265Z,5.60
2022-11-12T17:05:49.245Z,5.20
2022-11-12T17:06:49.278Z,5.40
2022-11-12T17:07:49.241Z,5.70
2022-11-12T17:08:49.199Z,6.20
2022-11-12T17:09:49.208Z,5.20
2022-11-12T17:10:49.218Z,5.40
2022-11-12T17:11:49.230Z,5.60
2022-11-12T17:12:49.257Z,5.70
2022-11-12T17:13:49.138Z,5.60
2022-11-12T17:14:49.172Z,5.50
2022-11-12T17:15:49.120Z,5.40
2022-11-12T17:16:49.189Z,5.30
2022-11-12T17:17:49.113Z,5.90
2022-11-12T17:18:49.115Z,5.30
2022-11-12T17:19:49.076Z,5.10
2022-11-12T17:20:51.383Z,5.40
2022-11-12T17:21:49.111Z,5.70
2022-11-12T17:22:49.045Z,5.70
2022-11-12T17:23:49.063Z,5.70
2022-11-12T17:24:49.021Z,5.40
2022-11-12T17:25:49.020Z,6.10
2022-11-12T17:26:49.001Z,5.60
2022-11-12T17:27:49.004Z,5.60
2022-11-12T17:28:51.626Z,6.60
2022-11-12T17:29:48.986Z,6.00
2022-11-12T17:30:49.128Z,6.00
2022-11-12T17:31:48.942Z,8.40
2022-11-12T17:32:48.960Z,8.50
2022-11-12T17:33:48.927Z,9.70
2022-11-12T17:34:48.913Z,9.20
2022-11-12T17:35:48.971Z,9.50
2022-11-12T17:36:49.078Z,8.60
2022-11-12T17:37:48.887Z,33.60
2022-11-12T17:38:48.890Z,11.90
2022-11-12T17:39:48.892Z,9.50
2022-11-12T17:40:48.857Z,8.90
2022-11-12T17:41:48.853Z,9.00
2022-11-12T17:42:48.832Z,9.00
2022-11-12T17:43:48.827Z,9.40
2022-11-12T17:44:48.831Z,9.30
2022-11-12T17:45:48.809Z,9.80
2022-11-12T17:46:48.789Z,9.90
2022-11-12T17:47:48.860Z,11.00
2022-11-12T17:48:48.767Z,10.50
2022-11-12T17:49:49.044Z,11.50
2022-11-12T17:50:48.961Z,11.10
2022-11-12T17:51:48.729Z,11.90
2022-11-12T17:52:48.750Z,12.70
2022-11-12T17:53:48.716Z,12.30
2022-11-12T17:54:48.701Z,11.60
2022-11-12T17:55:48.720Z,11.60
2022-11-12T17:56:48.675Z,11.90
2022-11-12T17:57:48.674Z,11.70
2022-11-12T17:58:48.678Z,11.40
2022-11-12T17:59:48.653Z,11.80
2022-11-12T18:00:48.709Z,11.70
2022-11-12T18:01:48.633Z,10.70
2022-11-12T18:02:48.630Z,12.70
2022-11-12T18:03:48.615Z,12.10
2022-11-12T18:04:48.875Z,10.90
2022-11-12T18:05:48.591Z,9.60
2022-11-12T18:06:48.585Z,10.00
2022-11-12T18:07:48.564Z,11.20
2022-11-12T18:08:48.543Z,10.30
2022-11-12T18:09:48.543Z,10.00
2022-11-12T18:10:48.797Z,10.30
2022-11-12T18:11:48.526Z,9.20
2022-11-12T18:12:48.523Z,9.80
2022-11-12T18:13:48.495Z,9.70
2022-11-12T18:14:48.498Z,10.30
2022-11-12T18:15:48.508Z,9.90
2022-11-12T18:16:49.084Z,9.80
2022-11-12T18:17:48.491Z,9.10
2022-11-12T18:18:48.588Z,10.00
2022-11-12T18:19:48.442Z,9.60
2022-11-12T18:20:48.449Z,9.70
2022-11-12T18:21:48.430Z,9.60
2022-11-12T18:22:48.670Z,9.60
2022-11-12T18:23:48.401Z,10.00
2022-11-12T18:24:48.407Z,10.70
2022-11-12T18:25:48.418Z,13.10
2022-11-12T18:26:48.353Z,12.90
2022-11-12T18:27:48.458Z,13.00
2022-11-12T18:28:48.336Z,15.10
2022-11-12T18:29:48.346Z,26.10
2022-11-12T18:30:48.563Z,22.50
2022-11-12T18:31:48.620Z,19.90
2022-11-12T18:32:48.291Z,18.50
2022-11-12T18:33:48.723Z,17.50
2022-11-12T18:34:48.268Z,18.20
2022-11-12T18:35:48.283Z,17.00
2022-11-12T18:36:48.264Z,17.10
2022-11-12T18:37:48.276Z,16.60
2022-11-12T18:38:48.228Z,18.60
2022-11-12T18:39:48.238Z,17.30
2022-11-12T18:40:48.287Z,16.50
2022-11-12T18:41:48.259Z,15.60
2022-11-12T18:42:48.191Z,14.90
2022-11-12T18:43:48.179Z,15.30
2022-11-12T18:44:48.164Z,15.10
2022-11-12T18:45:48.162Z,12.90
2022-11-12T18:46:48.159Z,12.20
2022-11-12T18:47:48.145Z,12.00
2022-11-12T18:48:48.128Z,12.50
2022-11-12T18:49:48.125Z,11.30
2022-11-12T18:50:48.105Z,13.90
2022-11-12T18:51:48.105Z,13.20
2022-11-12T18:52:48.077Z,13.20
2022-11-12T18:53:48.086Z,12.60
2022-11-12T18:54:48.064Z,13.00
2022-11-12T18:55:48.060Z,13.40
2022-11-12T18:56:48.039Z,15.30
2022-11-12T18:57:48.053Z,15.00
2022-11-12T18:58:48.010Z,13.40
2022-11-12T18:59:48.222Z,14.00
2022-11-12T19:00:48.054Z,12.80
2022-11-12T19:01:47.996Z,11.00
2022-11-12T19:02:47.987Z,11.60
2022-11-12T19:03:47.970Z,11.80
2022-11-12T19:04:47.970Z,10.90
2022-11-12T19:05:47.931Z,10.60
2022-11-12T19:06:47.933Z,10.20
2022-11-12T19:07:47.977Z,10.30
2022-11-12T19:08:47.940Z,10.30
2022-11-12T19:09:47.902Z,9.30
2022-11-12T19:10:47.925Z,10.10
2022-11-12T19:11:47.875Z,9.20
2022-11-12T19:12:47.872Z,9.10
2022-11-12T19:13:47.895Z,9.90
2022-11-12T19:14:47.858Z,9.50
2022-11-12T19:15:47.833Z,9.50
2022-11-12T19:16:47.821Z,10.40
2022-11-12T19:17:47.805Z,9.80
2022-11-12T19:18:47.801Z,9.30
2022-11-12T19:19:47.805Z,9.50
2022-11-12T19:20:47.776Z,9.30
2022-11-12T19:21:47.765Z,9.10
2022-11-12T19:22:47.759Z,9.90
2022-11-12T19:23:52.686Z,10.70
2022-11-12T19:24:47.750Z,10.50
2022-11-12T19:25:47.738Z,9.80
2022-11-12T19:26:47.722Z,9.80
2022-11-12T19:27:47.702Z,10.10
2022-11-12T19:28:47.680Z,9.70
2022-11-12T19:29:47.700Z,10.70
2022-11-12T19:30:47.690Z,10.40
2022-11-12T19:31:47.678Z,10.40
2022-11-12T19:32:47.665Z,10.70
2022-11-12T19:33:47.635Z,11.00
2022-11-12T19:34:47.639Z,10.90
2022-11-12T19:35:47.617Z,11.00
2022-11-12T19:36:48.485Z,10.30
2022-11-12T19:37:47.750Z,9.90
2022-11-12T19:38:47.611Z,10.60
2022-11-12T19:39:47.596Z,10.80
2022-11-12T19:40:47.571Z,10.90
2022-11-12T19:41:47.558Z,10.80
2022-11-12T19:42:47.535Z,12.50
2022-11-12T19:43:47.547Z,11.70
2022-11-12T19:44:47.553Z,12.10
2022-11-12T19:45:47.512Z,11.50
2022-11-12T19:46:47.495Z,15.40
2022-11-12T19:47:47.483Z,14.60
2022-11-12T19:48:47.504Z,15.90
2022-11-12T19:49:47.476Z,19.80
2022-11-12T19:50:47.443Z,19.10
2022-11-12T19:51:47.445Z,19.40
2022-11-12T19:52:47.424Z,20.60
2022-11-12T19:53:47.436Z,19.70
2022-11-12T19:54:47.406Z,19.90
2022-11-12T19:55:47.415Z,19.30
2022-11-12T19:56:47.381Z,18.70
2022-11-12T19:57:47.504Z,18.40
2022-11-12T19:58:47.380Z,16.50
2022-11-12T19:59:47.388Z,14.20
2022-11-12T20:00:47.417Z,14.00
2022-11-12T20:01:47.342Z,14.40
2022-11-12T20:02:47.353Z,14.10
2022-11-12T20:03:47.308Z,13.20
2022-11-12T20:04:47.317Z,14.00
2022-11-12T20:05:47.290Z,13.40
2022-11-12T20:06:47.370Z,12.50
2022-11-12T20:07:47.295Z,12.50
2022-11-12T20:08:47.252Z,13.10
2022-11-12T20:09:47.263Z,14.00
2022-11-12T20:10:47.245Z,12.70
2022-11-12T20:11:47.242Z,12.90
2022-11-12T20:12:47.211Z,14.20
2022-11-12T20:13:47.203Z,13.90
2022-11-12T20:14:47.192Z,14.90
2022-11-12T20:15:47.184Z,14.80
2022-11-12T20:16:47.176Z,13.70
2022-11-12T20:17:47.216Z,13.40
2022-11-12T20:18:50.809Z,13.50
2022-11-12T20:19:47.138Z,13.00
2022-11-12T20:20:47.130Z,13.40
2022-11-12T20:21:47.126Z,13.90
2022-11-12T20:22:47.120Z,14.30
2022-11-12T20:23:47.116Z,14.60
2022-11-12T20:24:47.085Z,16.30
2022-11-12T20:25:47.083Z,17.00
2022-11-12T20:26:47.061Z,16.10
2022-11-12T20:27:47.064Z,16.90
2022-11-12T20:28:47.048Z,15.50
2022-11-12T20:29:47.024Z,14.80
2022-11-12T20:30:47.041Z,14.60
2022-11-12T20:31:47.005Z,14.50
2022-11-12T20:32:47.000Z,13.90
2022-11-12T20:33:46.984Z,14.20
2022-11-12T20:35:44.611Z,22.90
2022-11-12T20:36:45.601Z,23.00
2022-11-12T20:37:45.592Z,24.60
2022-11-12T20:38:45.571Z,24.30
2022-11-12T20:39:45.581Z,24.00
2022-11-12T20:40:45.598Z,24.00
2022-11-12T20:41:45.560Z,23.50
2022-11-12T20:42:45.532Z,24.70
2022-11-12T20:43:45.527Z,24.60
2022-11-12T20:44:45.514Z,23.60
2022-11-12T20:45:45.518Z,23.70
2022-11-12T20:46:45.484Z,24.50
2022-11-12T20:47:45.491Z,24.00
2022-11-12T20:48:45.490Z,25.20
2022-11-12T20:49:45.458Z,23.90
2022-11-12T20:51:09.336Z,23.10
2022-11-12T20:51:45.607Z,21.20
2022-11-12T20:52:45.423Z,22.90
2022-11-12T20:53:45.437Z,24.20
2022-11-12T20:54:45.412Z,24.20
2022-11-12T20:55:45.413Z,23.50
2022-11-12T20:56:45.389Z,23.50
2022-11-12T20:57:45.390Z,23.30
2022-11-12T20:58:45.366Z,22.80
2022-11-12T20:59:45.391Z,22.80
2022-11-12T21:00:45.347Z,22.90
2022-11-12T21:01:45.455Z,23.60
2022-11-12T21:02:45.364Z,22.10
2022-11-12T21:03:45.316Z,23.00
2022-11-12T21:04:45.302Z,22.30
2022-11-12T21:05:45.286Z,22.20
2022-11-12T21:06:45.359Z,22.30
2022-11-12T21:07:45.288Z,22.30
2022-11-12T21:08:45.261Z,21.60
2022-11-12T21:09:45.251Z,21.90
2022-11-12T21:10:45.276Z,21.70
2022-11-12T21:11:45.229Z,20.80
2022-11-12T21:12:45.245Z,21.00
2022-11-12T21:13:45.237Z,20.80
2022-11-12T21:14:50.159Z,20.80
2022-11-12T21:15:45.188Z,21.50
2022-11-12T21:16:45.172Z,20.50
2022-11-12T21:17:45.185Z,21.10
2022-11-12T21:18:45.146Z,20.70
2022-11-12T21:19:45.155Z,21.00
2022-11-12T21:20:45.119Z,20.40
2022-11-12T21:21:45.117Z,20.30
2022-11-12T21:22:45.137Z,21.00
2022-11-12T21:23:45.130Z,21.10
2022-11-12T21:24:45.100Z,21.70
2022-11-12T21:25:45.080Z,21.30
2022-11-12T21:26:45.081Z,20.70
2022-11-12T21:27:45.147Z,21.30
2022-11-12T21:28:45.066Z,20.70
2022-11-12T21:29:45.050Z,21.80
2022-11-12T21:30:45.060Z,20.10
2022-11-12T21:31:45.033Z,22.30
2022-11-12T21:32:44.999Z,21.70
2022-11-12T21:33:45.033Z,21.50
2022-11-12T21:34:44.977Z,21.40
2022-11-12T21:35:53.493Z,21.20
2022-11-12T21:36:44.963Z,21.00
2022-11-12T21:37:44.965Z,20.90
2022-11-12T21:38:44.953Z,21.50
2022-11-12T21:39:44.936Z,21.70
2022-11-12T21:40:44.918Z,20.70
2022-11-12T21:41:44.910Z,21.00
2022-11-12T21:42:44.890Z,21.40
2022-11-12T21:43:44.900Z,22.20
2022-11-12T21:44:44.899Z,21.00
2022-11-12T21:45:44.862Z,21.30
2022-11-12T21:46:44.850Z,20.40
2022-11-12T21:47:44.841Z,21.40
2022-11-12T21:48:44.841Z,20.70
2022-11-12T21:49:44.833Z,21.50
2022-11-12T21:50:44.806Z,21.40
2022-11-12T21:51:44.793Z,20.90
2022-11-12T21:52:44.785Z,20.80
2022-11-12T21:53:44.772Z,20.80
2022-11-12T21:54:44.786Z,20.20
2022-11-12T21:55:44.780Z,19.80
2022-11-12T21:56:44.732Z,20.40
2022-11-12T21:57:44.727Z,20.40
2022-11-12T21:58:44.728Z,22.70
2022-11-12T21:59:44.745Z,20.80
2022-11-12T22:00:44.693Z,21.10
2022-11-12T22:01:44.683Z,21.20
2022-11-12T22:02:44.737Z,21.00
2022-11-12T22:03:44.662Z,21.40
2022-11-12T22:04:44.657Z,21.10
2022-11-12T22:05:44.666Z,21.00
2022-11-12T22:06:44.698Z,20.30
2022-11-12T22:07:44.617Z,20.10
2022-11-12T22:08:44.607Z,19.80
2022-11-12T22:09:44.643Z,19.20
2022-11-12T22:10:44.619Z,19.80
2022-11-12T22:11:44.588Z,19.50
2022-11-12T22:13:04.971Z,19.20
2022-11-12T22:13:44.559Z,19.50
2022-11-12T22:14:44.550Z,18.40
2022-11-12T22:15:44.557Z,19.10
2022-11-12T22:16:44.545Z,19.50
2022-11-12T22:17:44.520Z,19.60
2022-11-12T22:18:44.508Z,19.50
2022-11-12T22:19:44.495Z,19.10
2022-11-12T22:20:44.478Z,18.60
2022-11-12T22:21:44.928Z,19.30
2022-11-12T22:22:44.502Z,18.40
2022-11-12T22:23:44.478Z,19.50
2022-11-12T22:24:44.454Z,19.20
2022-11-12T22:25:44.443Z,19.40
2022-11-12T22:26:44.413Z,18.60
2022-11-12T22:27:44.405Z,19.90
2022-11-12T22:28:44.399Z,19.30
2022-11-12T22:29:44.376Z,19.20
2022-11-12T22:30:44.382Z,19.10
2022-11-12T22:31:44.386Z,19.00
2022-11-12T22:32:44.347Z,18.40
2022-11-12T22:33:44.335Z,18.90
2022-11-12T22:34:49.253Z,19.70
2022-11-12T22:35:52.807Z,19.90
2022-11-12T22:36:44.315Z,19.80
2022-11-12T22:37:44.315Z,19.90
2022-11-12T22:38:44.294Z,19.00
2022-11-12T22:39:44.269Z,19.70
2022-11-12T22:40:44.262Z,18.50
2022-11-12T22:41:44.246Z,18.50
2022-11-12T22:42:44.276Z,18.90
2022-11-12T22:43:44.224Z,18.00
2022-11-12T22:44:44.209Z,18.40
2022-11-12T22:45:44.214Z,18.20
2022-11-12T22:46:44.207Z,18.90
2022-11-12T22:47:44.189Z,17.70
2022-11-12T22:48:44.173Z,17.90
2022-11-12T22:49:44.185Z,18.50
2022-11-12T22:50:44.226Z,19.00
2022-11-12T22:51:44.155Z,19.20
2022-11-12T22:52:49.853Z,19.00
2022-11-12T22:53:44.150Z,18.00
2022-11-12T22:54:44.120Z,19.90
2022-11-12T22:55:44.147Z,18.70
2022-11-12T22:56:44.092Z,17.50
2022-11-12T22:57:44.084Z,18.20
2022-11-12T22:58:44.085Z,18.40
2022-11-12T22:59:44.064Z,18.50
2022-11-12T23:00:44.048Z,18.50
2022-11-12T23:01:44.085Z,18.40
2022-11-12T23:02:47.572Z,18.30
2022-11-12T23:03:44.023Z,18.10
2022-11-12T23:04:44.018Z,18.10
2022-11-12T23:05:43.990Z,18.70
2022-11-12T23:06:44.048Z,17.50
2022-11-12T23:07:43.963Z,17.80
2022-11-12T23:08:43.960Z,18.20
2022-11-12T23:09:43.959Z,17.90
2022-11-12T23:10:45.896Z,18.40
2022-11-12T23:11:43.924Z,19.20
2022-11-12T23:12:43.916Z,18.00
2022-11-12T23:13:43.902Z,18.40
2022-11-12T23:14:43.907Z,18.70
2022-11-12T23:15:43.902Z,18.30
2022-11-12T23:16:43.866Z,18.30
2022-11-12T23:17:43.853Z,18.30
2022-11-12T23:18:43.860Z,17.70
2022-11-12T23:19:43.861Z,18.10
2022-11-12T23:20:43.859Z,18.00
2022-11-12T23:21:43.812Z,17.10
2022-11-12T23:22:43.860Z,17.20
2022-11-12T23:23:43.789Z,17.50
2022-11-12T23:24:43.811Z,18.20
2022-11-12T23:25:43.774Z,17.30
2022-11-12T23:26:43.770Z,18.00
2022-11-12T23:27:43.883Z,17.90
2022-11-12T23:28:43.751Z,19.00
2022-11-12T23:29:43.747Z,18.20
2022-11-12T23:30:43.721Z,17.60
2022-11-12T23:31:43.714Z,18.70
2022-11-12T23:32:43.698Z,18.30
2022-11-12T23:33:43.695Z,18.30
2022-11-12T23:34:43.685Z,17.30
2022-11-12T23:35:51.187Z,17.80
2022-11-12T23:36:43.648Z,17.50
2022-11-12T23:37:43.639Z,19.20
2022-11-12T23:38:43.622Z,17.40
2022-11-12T23:39:43.617Z,17.70
2022-11-12T23:40:43.631Z,18.30
2022-11-12T23:41:43.610Z,18.30
2022-11-12T23:42:43.600Z,18.60
2022-11-12T23:43:43.573Z,17.40
2022-11-12T23:44:43.575Z,17.20
2022-11-12T23:45:43.583Z,17.50
2022-11-12T23:46:43.569Z,18.20
2022-11-12T23:47:43.535Z,18.60
2022-11-12T23:48:43.572Z,17.80
2022-11-12T23:49:45.013Z,17.20
2022-11-12T23:50:43.504Z,17.50
2022-11-12T23:51:43.943Z,18.20
2022-11-12T23:52:43.491Z,19.10
2022-11-12T23:53:43.487Z,18.90
2022-11-12T23:54:43.473Z,18.20
2022-11-12T23:55:43.448Z,17.00
2022-11-12T23:56:43.474Z,17.30
2022-11-12T23:57:43.430Z,16.50
2022-11-12T23:58:43.428Z,16.90
2022-11-12T23:59:43.407Z,17.30
